Time;durP1;ratioP1;P1;durP2;ratioP2;P2;SDS_P1;SDS_P2;PMS_P1;PMS_P2;Temp;Humidity;BMP_temperature;BMP_pressure;BME280_temperature;BME280_humidity;BME280_pressure;Samples;Min_cycle;Max_cycle;Signal;HPM_P1;HPM_P2
2023/02/05 00:01:57;;;;;;;7.88;4.05;;;;;;;19.03;44.35;103616.03;5007340;28;20994;-71
2023/02/05 00:04:22;;;;;;;8.48;4.45;;;;;;;19.02;44.08;103616.94;4992101;28;19928;-70
2023/02/05 00:06:48;;;;;;;8.32;4.35;;;;;;;18.98;43.97;103604.81;4992440;28;20072;-71
2023/02/05 00:09:13;;;;;;;10.30;4.80;;;;;;;19.00;44.11;103619.66;4991335;28;20052;-71
2023/02/05 00:11:39;;;;;;;7.53;4.28;;;;;;;18.99;43.96;103614.44;4991600;28;20087;-72
2023/02/05 00:14:05;;;;;;;7.90;4.40;;;;;;;18.95;44.13;103605.78;4991841;28;20081;-71
2023/02/05 00:16:33;;;;;;;7.05;4.45;;;;;;;18.98;44.18;103607.44;4992293;28;20486;-72
2023/02/05 00:18:58;;;;;;;8.32;4.60;;;;;;;18.97;43.94;103605.72;4991750;28;20048;-71
2023/02/05 00:21:23;;;;;;;8.82;4.90;;;;;;;18.94;43.85;103597.91;4992442;28;20038;-72
2023/02/05 00:23:49;;;;;;;7.20;4.50;;;;;;;18.96;44.09;103601.34;4991723;28;20034;-73
2023/02/05 00:26:14;;;;;;;8.50;5.10;;;;;;;18.92;44.17;103589.19;4991855;28;20029;-71
2023/02/05 00:28:41;;;;;;;10.05;5.38;;;;;;;18.92;43.91;103584.75;4991961;28;20045;-71
2023/02/05 00:31:13;;;;;;;10.15;5.68;;;;;;;18.93;44.01;103582.97;4991983;28;20032;-70
2023/02/05 00:33:38;;;;;;;8.13;5.15;;;;;;;18.91;43.95;103577.75;4992571;28;20506;-70
2023/02/05 00:36:04;;;;;;;8.95;5.38;;;;;;;18.93;44.08;103585.63;4991683;28;20080;-70
2023/02/05 00:38:29;;;;;;;9.52;5.57;;;;;;;18.86;43.99;103561.22;4991690;28;20035;-71
2023/02/05 00:40:55;;;;;;;7.85;5.18;;;;;;;18.89;43.83;103568.19;4991940;28;20502;-70
2023/02/05 00:43:20;;;;;;;8.43;5.32;;;;;;;18.89;43.89;103569.03;4998249;28;20125;-69
2023/02/05 00:45:45;;;;;;;8.50;5.65;;;;;;;18.88;43.96;103566.44;4992024;28;20080;-70
2023/02/05 00:48:11;;;;;;;11.70;6.20;;;;;;;18.84;43.86;103557.81;4997552;28;20077;-71
2023/02/05 00:50:36;;;;;;;8.63;5.63;;;;;;;18.86;43.86;103553.31;4991320;28;20038;-71
2023/02/05 00:53:02;;;;;;;9.20;5.90;;;;;;;18.79;43.95;103549.19;4991313;28;20603;-71
2023/02/05 00:55:27;;;;;;;9.43;5.72;;;;;;;18.82;43.89;103547.25;4991677;28;20533;-73
2023/02/05 00:57:53;;;;;;;10.25;6.18;;;;;;;18.78;44.04;103545.66;4992131;28;20038;-71
2023/02/05 01:00:18;;;;;;;9.88;6.00;;;;;;;18.79;43.97;103552.69;4991831;28;20034;-70
2023/02/05 01:02:44;;;;;;;9.27;5.95;;;;;;;18.83;44.06;103561.31;4991929;28;20038;-70
2023/02/05 01:05:09;;;;;;;8.63;5.85;;;;;;;18.82;43.95;103562.28;4991874;28;20038;-71
2023/02/05 01:07:34;;;;;;;9.73;5.95;;;;;;;18.80;43.89;103564.97;4991032;28;20038;-71
2023/02/05 01:09:59;;;;;;;9.13;5.78;;;;;;;18.81;44.01;103564.03;4991767;28;20387;-71
2023/02/05 01:12:25;;;;;;;9.02;5.97;;;;;;;18.76;43.93;103563.38;4991336;28;20038;-71
2023/02/05 01:14:50;;;;;;;8.68;5.95;;;;;;;18.75;43.77;103563.44;4991259;28;20061;-71
2023/02/05 01:17:16;;;;;;;9.57;6.50;;;;;;;18.77;43.92;103557.19;4991232;28;20042;-71
2023/02/05 01:19:42;;;;;;;8.98;6.13;;;;;;;18.74;43.93;103553.78;4991561;28;20029;-70
2023/02/05 01:22:07;;;;;;;9.18;6.43;;;;;;;18.75;43.87;103552.88;4991298;28;20039;-69
2023/02/05 01:24:33;;;;;;;10.05;6.13;;;;;;;18.72;43.85;103561.75;4991410;28;20138;-71
2023/02/05 01:26:58;;;;;;;7.95;6.32;;;;;;;18.74;43.64;103564.34;4991416;28;20036;-69
2023/02/05 01:29:25;;;;;;;10.18;5.97;;;;;;;18.74;43.87;103565.22;4991385;28;20038;-71
2023/02/05 01:31:51;;;;;;;9.05;5.93;;;;;;;18.70;43.63;103563.63;4991249;28;20084;-71
2023/02/05 01:34:17;;;;;;;9.73;6.57;;;;;;;18.69;43.82;103567.16;4991219;28;20041;-70
2023/02/05 01:36:42;;;;;;;9.93;6.13;;;;;;;18.72;43.83;103574.97;4991056;28;20034;-71
2023/02/05 01:39:07;;;;;;;8.65;6.10;;;;;;;18.71;43.92;103573.28;4990634;28;20038;-70
2023/02/05 01:41:34;;;;;;;8.52;6.00;;;;;;;18.70;43.88;103571.53;4991909;28;20113;-70
2023/02/05 01:44:08;;;;;;;9.65;5.85;;;;;;;18.68;43.95;103565.47;4990953;28;20034;-72
2023/02/05 01:46:35;;;;;;;9.50;6.47;;;;;;;18.69;43.84;103567.16;4991956;28;20037;-70
2023/02/05 01:49:02;;;;;;;9.10;6.18;;;;;;;18.67;43.80;103564.63;4990764;28;20117;-70
2023/02/05 01:51:30;;;;;;;8.68;6.07;;;;;;;18.66;43.84;103572.59;4991094;28;20037;-70
2023/02/05 01:53:55;;;;;;;10.05;6.32;;;;;;;18.64;43.70;103569.16;4991076;28;20104;-71
2023/02/05 01:56:25;;;;;;;8.45;6.20;;;;;;;18.66;43.69;103575.25;4991233;28;20468;-70
2023/02/05 01:58:57;;;;;;;8.73;6.50;;;;;;;18.61;43.78;103577.19;4991131;28;20034;-69
2023/02/05 02:01:23;;;;;;;9.23;6.18;;;;;;;18.65;43.93;103576.16;4992104;28;20066;-71
2023/02/05 02:03:52;;;;;;;8.50;6.25;;;;;;;18.60;43.73;103562.28;4994489;28;20099;-72
2023/02/05 02:06:17;;;;;;;8.95;6.53;;;;;;;18.63;43.58;103567.44;4994519;28;20451;-69
2023/02/05 02:08:43;;;;;;;9.18;6.30;;;;;;;18.60;43.95;103565.78;4994474;28;20096;-71
2023/02/05 02:11:12;;;;;;;8.20;6.00;;;;;;;18.59;43.89;103563.19;4994294;28;20361;-70
2023/02/05 02:13:39;;;;;;;8.35;5.68;;;;;;;18.57;43.91;103555.34;4994200;28;20050;-71
2023/02/05 02:16:05;;;;;;;9.25;6.30;;;;;;;18.56;43.94;103547.47;4994344;28;20387;-69
2023/02/05 02:18:33;;;;;;;10.45;6.00;;;;;;;18.57;43.84;103547.41;4993409;28;20026;-69
2023/02/05 02:21:13;;;;;;;9.38;6.30;;;;;;;18.60;43.66;103551.72;4993820;28;20041;-71
2023/02/05 02:23:56;;;;;;;9.90;6.03;;;;;;;18.59;43.58;103565.84;4994486;28;20029;-70
2023/02/05 02:26:58;;;;;;;9.93;6.22;;;;;;;18.58;43.68;103572.91;4994205;28;20116;-71
2023/02/05 02:30:01;;;;;;;11.60;6.78;;;;;;;18.58;43.58;103567.63;4992794;28;20034;-70
2023/02/05 02:32:41;;;;;;;8.27;5.78;;;;;;;18.55;43.50;103548.38;4994512;28;20132;-70
2023/02/05 02:35:19;;;;;;;9.02;5.80;;;;;;;18.55;43.67;103546.63;4994053;28;20125;-71
2023/02/05 02:38:01;;;;;;;9.05;5.63;;;;;;;18.54;43.60;103541.41;4993711;28;20077;-71
2023/02/05 02:41:00;;;;;;;9.50;5.63;;;;;;;18.56;43.61;103535.13;4994348;28;20117;-71
2023/02/05 02:43:38;;;;;;;7.20;5.55;;;;;;;18.53;43.76;103535.25;4984516;28;20676;-71
2023/02/05 02:46:10;;;;;;;7.57;5.00;;;;;;;18.48;43.73;103538.09;4993748;28;20380;-72
2023/02/05 02:48:38;;;;;;;8.88;5.05;;;;;;;18.54;43.56;103551.97;4993985;28;20589;-71
2023/02/05 02:51:08;;;;;;;8.45;5.20;;;;;;;18.54;43.68;103538.75;4994198;28;20033;-71
2023/02/05 02:53:37;;;;;;;7.60;5.15;;;;;;;18.49;43.75;103525.75;4993815;28;20034;-71
2023/02/05 02:56:05;;;;;;;7.13;4.88;;;;;;;18.49;43.71;103533.66;4993791;28;20038;-71
2023/02/05 02:58:36;;;;;;;7.13;4.75;;;;;;;18.47;43.78;103530.22;4993660;28;20062;-72
2023/02/05 03:01:05;;;;;;;7.25;4.82;;;;;;;18.48;43.74;103529.28;4994526;28;20037;-71
2023/02/05 03:03:34;;;;;;;8.13;5.25;;;;;;;18.52;43.63;103532.66;4992907;28;20442;-72
2023/02/05 03:06:03;;;;;;;6.53;4.80;;;;;;;18.46;43.65;103524.06;4993713;28;20074;-71
2023/02/05 03:08:57;;;;;;;6.75;4.57;;;;;;;18.51;43.71;103523.88;4993281;28;20109;-71
2023/02/05 03:11:25;;;;;;;8.83;5.07;;;;;;;18.51;43.52;103526.53;4991944;28;20060;-70
2023/02/05 03:13:50;;;;;;;9.30;4.85;;;;;;;18.46;43.62;103526.72;4993863;28;20291;-71
2023/02/05 03:16:17;;;;;;;6.53;4.60;;;;;;;18.48;43.44;103506.41;4993342;28;20036;-69
2023/02/05 03:18:43;;;;;;;6.10;4.30;;;;;;;18.45;43.59;103500.38;4993392;28;20045;-70
2023/02/05 03:21:14;;;;;;;6.65;4.47;;;;;;;18.44;43.71;103507.44;4996624;28;20042;-70
2023/02/05 03:23:40;;;;;;;6.78;4.15;;;;;;;18.45;43.60;103516.22;4993098;28;20042;-70
2023/02/05 03:26:21;;;;;;;6.15;4.15;;;;;;;18.42;43.28;103509.28;4993447;28;20038;-70
2023/02/05 03:28:46;;;;;;;7.60;4.22;;;;;;;18.43;43.43;103497.78;4992977;28;20108;-69
2023/02/05 03:31:22;;;;;;;6.65;4.25;;;;;;;18.42;43.39;103496.09;4993368;28;20042;-71
2023/02/05 03:34:39;;;;;;;5.90;3.90;;;;;;;18.46;43.25;103500.31;4993799;28;20041;-70
2023/02/05 03:37:13;;;;;;;5.60;3.60;;;;;;;18.45;43.23;103495.97;4993701;28;20038;-70
2023/02/05 03:39:52;;;;;;;5.95;3.22;;;;;;;18.43;43.30;103512.78;4992470;28;20116;-71
2023/02/05 03:42:49;;;;;;;5.72;3.72;;;;;;;18.45;43.44;103524.13;4992822;28;20108;-71
2023/02/05 03:45:30;;;;;;;7.55;4.10;;;;;;;18.41;43.34;103528.69;4992963;28;20038;-70
2023/02/05 03:47:58;;;;;;;5.82;3.80;;;;;;;18.42;43.07;103532.19;4992947;28;20030;-71
2023/02/05 03:50:48;;;;;;;5.32;3.45;;;;;;;18.42;43.19;103540.97;4991539;28;20074;-72
2023/02/05 03:53:32;;;;;;;5.68;3.17;;;;;;;18.39;43.25;103530.53;4992830;28;20556;-71
2023/02/05 03:56:07;;;;;;;6.65;3.70;;;;;;;18.38;43.26;103523.53;4992991;28;20038;-71
2023/02/05 03:58:39;;;;;;;5.68;3.30;;;;;;;18.36;43.30;103519.22;4992522;28;20033;-70
2023/02/05 04:01:06;;;;;;;5.43;3.42;;;;;;;18.39;43.13;103530.53;4992116;28;20117;-71
2023/02/05 04:03:32;;;;;;;5.82;3.22;;;;;;;18.34;43.06;103524.59;4992110;28;20531;-72
2023/02/05 04:05:57;;;;;;;7.03;3.38;;;;;;;18.34;42.98;103534.25;4992089;28;20030;-71
2023/02/05 04:08:22;;;;;;;5.72;3.50;;;;;;;18.34;42.97;103537.78;4991981;28;20042;-70
2023/02/05 04:10:48;;;;;;;6.75;3.33;;;;;;;18.32;43.26;103531.69;4992200;28;20026;-70
2023/02/05 04:13:13;;;;;;;6.57;3.25;;;;;;;18.37;42.91;103545.56;4991899;28;20050;-71
2023/02/05 04:15:38;;;;;;;6.78;3.58;;;;;;;18.36;43.14;103553.53;4991821;28;20041;-71
2023/02/05 04:18:04;;;;;;;5.97;3.40;;;;;;;18.34;42.91;103552.75;4999010;28;20070;-71
2023/02/05 04:20:29;;;;;;;6.20;3.15;;;;;;;18.36;43.17;103556.19;4991412;28;20644;-74
2023/02/05 04:22:54;;;;;;;5.50;2.80;;;;;;;18.36;43.20;103564.09;4991724;28;20453;-71
2023/02/05 04:25:19;;;;;;;5.57;2.90;;;;;;;18.32;43.13;103555.44;4991555;28;20089;-70
2023/02/05 04:27:45;;;;;;;4.53;2.63;;;;;;;18.35;42.85;103557.97;4991636;28;20038;-70
2023/02/05 04:30:11;;;;;;;5.15;2.70;;;;;;;18.33;42.81;103545.78;4991948;28;20482;-70
2023/02/05 04:32:36;;;;;;;5.28;2.80;;;;;;;18.30;42.81;103546.75;4991552;28;20042;-71
2023/02/05 04:35:02;;;;;;;5.40;2.72;;;;;;;18.33;42.91;103543.13;4992295;28;20034;-71
2023/02/05 04:37:27;;;;;;;5.65;2.72;;;;;;;18.31;42.73;103530.00;4991956;28;20864;-70
2023/02/05 04:39:52;;;;;;;4.93;2.73;;;;;;;18.32;42.64;103542.25;5006756;28;20070;-71
2023/02/05 04:42:18;;;;;;;6.32;2.97;;;;;;;18.28;43.11;103536.25;4991049;28;20322;-71
2023/02/05 04:44:43;;;;;;;6.47;3.10;;;;;;;18.30;42.91;103536.19;4992080;28;20040;-70
2023/02/05 04:47:08;;;;;;;5.18;2.70;;;;;;;18.31;42.93;103537.91;4991556;28;20045;-69
2023/02/05 04:49:33;;;;;;;4.85;3.05;;;;;;;18.28;42.77;103545.94;4990302;28;20034;-71
2023/02/05 04:51:59;;;;;;;5.70;2.70;;;;;;;18.30;42.74;103546.75;4992366;28;20080;-71
2023/02/05 04:54:27;;;;;;;5.05;2.80;;;;;;;18.26;42.81;103539.84;4992584;28;20129;-71
2023/02/05 04:56:52;;;;;;;5.38;3.00;;;;;;;18.27;42.65;103528.38;4991541;28;20121;-69
2023/02/05 04:59:17;;;;;;;4.90;2.70;;;;;;;18.28;42.60;103530.09;4991582;28;20121;-71
2023/02/05 05:01:42;;;;;;;6.72;2.90;;;;;;;18.26;42.56;103532.81;4991677;28;20034;-73
2023/02/05 05:04:08;;;;;;;6.13;2.70;;;;;;;18.25;42.85;103535.50;4991645;28;20038;-71
2023/02/05 05:06:33;;;;;;;5.28;2.67;;;;;;;18.25;42.75;103541.63;4990516;28;20276;-70
2023/02/05 05:08:58;;;;;;;4.95;2.90;;;;;;;18.23;42.83;103530.28;4991310;28;20402;-73
2023/02/05 05:11:24;;;;;;;5.07;2.70;;;;;;;18.24;42.81;103533.78;4991403;28;20034;-70
2023/02/05 05:13:51;;;;;;;5.68;2.60;;;;;;;18.22;42.85;103525.91;4990748;28;20487;-72
2023/02/05 05:16:16;;;;;;;5.20;2.65;;;;;;;18.24;42.69;103518.78;4991503;28;20177;-70
2023/02/05 05:18:42;;;;;;;6.15;2.90;;;;;;;18.22;42.92;103518.00;4991087;28;20113;-71
2023/02/05 05:21:07;;;;;;;4.57;2.70;;;;;;;18.24;42.64;103517.94;4991645;28;20482;-70
2023/02/05 05:23:33;;;;;;;4.75;2.58;;;;;;;18.24;42.65;103518.78;4990841;28;20083;-71
2023/02/05 05:25:58;;;;;;;5.22;2.63;;;;;;;18.24;42.55;103521.44;4991251;28;20034;-71
2023/02/05 05:28:24;;;;;;;5.55;2.72;;;;;;;18.23;42.61;103522.38;4990594;28;20065;-70
2023/02/05 05:30:49;;;;;;;5.20;2.72;;;;;;;18.20;42.62;103516.31;4991146;28;20037;-70
2023/02/05 05:33:15;;;;;;;4.90;2.60;;;;;;;18.20;42.63;103517.22;4990867;28;20167;-71
2023/02/05 05:35:40;;;;;;;5.63;2.60;;;;;;;18.22;42.47;103525.91;4990002;28;20113;-70
2023/02/05 05:38:06;;;;;;;5.22;2.67;;;;;;;18.19;42.64;103526.03;4993941;28;20083;-70
2023/02/05 05:46:03;;;;;;;5.70;2.70;;;;;;;18.20;42.71;103521.59;4994756;28;20045;-72
2023/02/05 05:48:29;;;;;;;5.20;2.85;;;;;;;18.19;42.56;103526.03;4995161;28;20065;-70
2023/02/05 05:50:55;;;;;;;5.53;2.50;;;;;;;18.20;42.39;103529.53;4995139;28;20131;-71
2023/02/05 05:53:20;;;;;;;5.75;2.58;;;;;;;18.18;42.70;103524.31;4994890;28;20041;-70
2023/02/05 05:55:46;;;;;;;5.50;2.38;;;;;;;18.17;42.72;103517.31;4994530;28;20053;-69
2023/02/05 05:58:12;;;;;;;4.95;2.70;;;;;;;18.15;42.46;103515.66;4994861;28;20034;-70
2023/02/05 06:00:38;;;;;;;4.05;2.08;;;;;;;18.18;42.64;103523.47;5000701;28;20044;-71
2023/02/05 06:03:04;;;;;;;4.80;2.00;;;;;;;18.14;42.81;103512.16;4994764;28;20061;-70
2023/02/05 06:05:30;;;;;;;3.63;1.70;;;;;;;18.17;42.88;103512.06;4994566;28;20041;-69
2023/02/05 06:07:55;;;;;;;3.63;1.77;;;;;;;18.16;43.20;103512.09;4994728;28;20144;-71
2023/02/05 06:10:21;;;;;;;5.55;1.67;;;;;;;18.20;43.01;103516.31;4994558;28;20585;-71
2023/02/05 06:12:46;;;;;;;4.00;1.77;;;;;;;18.22;43.13;103504.81;4994158;28;20545;-69
2023/02/05 06:15:11;;;;;;;2.55;1.20;;;;;;;18.22;42.91;103517.16;4994232;28;20042;-69
2023/02/05 06:17:36;;;;;;;3.80;1.65;;;;;;;18.25;42.97;103517.88;4994439;28;20415;-72
2023/02/05 06:20:03;;;;;;;3.10;1.37;;;;;;;18.30;43.10;103507.13;4994008;28;20030;-70
2023/02/05 06:22:28;;;;;;;3.22;1.30;;;;;;;18.33;43.00;103512.31;4994239;28;20267;-70
2023/02/05 06:24:53;;;;;;;3.15;1.30;;;;;;;18.37;43.04;103513.88;4993960;28;20034;-70
2023/02/05 06:27:18;;;;;;;3.30;1.40;;;;;;;18.43;43.13;103518.91;4993560;28;20034;-68
2023/02/05 06:29:44;;;;;;;4.18;1.20;;;;;;;18.49;42.84;103521.31;4994328;28;20095;-70
2023/02/05 06:32:09;;;;;;;2.80;1.00;;;;;;;18.53;43.08;103524.69;4994045;28;20464;-74
2023/02/05 06:34:34;;;;;;;2.37;1.10;;;;;;;18.56;42.80;103526.34;4995078;28;20369;-70
2023/02/05 06:36:59;;;;;;;2.40;1.08;;;;;;;18.56;42.65;103526.34;4993596;28;20271;-71
2023/02/05 06:39:25;;;;;;;2.40;1.00;;;;;;;18.61;42.89;103533.16;4994089;28;20034;-72
2023/02/05 06:41:50;;;;;;;2.33;1.00;;;;;;;18.62;42.39;103534.88;4993906;28;20268;-70
2023/02/05 06:44:15;;;;;;;2.08;0.90;;;;;;;18.65;42.55;103541.81;4993819;28;20035;-70
2023/02/05 06:46:41;;;;;;;2.33;1.02;;;;;;;18.65;42.65;103547.09;4993389;28;20176;-71
2023/02/05 06:49:06;;;;;;;2.90;1.08;;;;;;;18.66;42.65;103554.97;4992755;28;20034;-73
2023/02/05 06:51:31;;;;;;;2.42;1.02;;;;;;;18.70;42.55;103562.75;4993644;28;20030;-72
2023/02/05 06:53:58;;;;;;;1.20;0.70;;;;;;;18.70;42.42;103574.19;4993611;28;20046;-72
2023/02/05 06:56:24;;;;;;;2.03;0.90;;;;;;;18.74;42.54;103583.72;4993228;28;20041;-72
2023/02/05 06:58:49;;;;;;;2.92;1.00;;;;;;;18.70;42.39;103576.81;4993610;28;20156;-71
2023/02/05 07:01:15;;;;;;;2.17;0.90;;;;;;;18.74;42.45;103594.28;4993538;28;20531;-71
2023/02/05 07:03:40;;;;;;;3.25;1.10;;;;;;;18.75;42.55;103603.91;4993247;28;20041;-70
2023/02/05 07:06:06;;;;;;;2.75;0.90;;;;;;;18.79;42.50;103626.66;4993819;28;20065;-71
2023/02/05 07:08:32;;;;;;;2.17;0.90;;;;;;;18.80;42.51;103627.50;4993933;28;20176;-71
2023/02/05 07:10:58;;;;;;;3.15;1.17;;;;;;;18.78;42.39;103638.13;4993285;28;20112;-74
2023/02/05 07:13:23;;;;;;;2.70;1.00;;;;;;;18.76;42.59;103634.69;4992828;28;20474;-72
2023/02/05 07:15:48;;;;;;;2.67;1.00;;;;;;;18.78;42.38;103647.84;4993320;28;20037;-76
2023/02/05 07:18:14;;;;;;;3.08;0.80;;;;;;;18.80;42.61;103648.63;4991943;28;20075;-78
2023/02/05 07:20:39;;;;;;;5.03;1.20;;;;;;;18.83;42.67;103654.69;4992208;28;20030;-79
2023/02/05 07:23:05;;;;;;;2.42;0.90;;;;;;;18.82;43.04;103660.03;4992945;28;20080;-75
2023/02/05 07:25:35;;;;;;;2.03;0.70;;;;;;;18.84;43.05;103666.13;4993936;28;20045;-75
2023/02/05 07:28:01;;;;;;;2.33;0.80;;;;;;;18.88;43.00;103677.44;4992380;28;20475;-79
2023/02/05 07:30:26;;;;;;;2.80;0.90;;;;;;;18.87;42.62;103676.59;4993239;28;20085;-78
2023/02/05 07:32:52;;;;;;;3.13;0.90;;;;;;;18.82;42.50;103681.16;4992179;28;20038;-77
2023/02/05 07:35:17;;;;;;;2.67;0.88;;;;;;;18.88;43.10;103682.72;4993110;28;20042;-78
2023/02/05 07:37:42;;;;;;;3.72;0.80;;;;;;;18.89;43.01;103695.03;4992763;28;20873;-77
2023/02/05 07:40:08;;;;;;;2.08;0.90;;;;;;;18.86;42.74;103690.72;4992684;28;20038;-74
2023/02/05 07:42:33;;;;;;;2.42;1.00;;;;;;;18.89;42.73;103700.31;4992619;28;20049;-74
2023/02/05 07:44:58;;;;;;;3.20;0.90;;;;;;;18.88;43.15;103704.72;4992372;28;20456;-75
2023/02/05 07:47:24;;;;;;;3.42;1.02;;;;;;;18.82;42.65;103691.72;5006858;28;20042;-77
2023/02/05 07:49:49;;;;;;;1.85;0.80;;;;;;;18.90;42.68;103720.50;4993421;28;20030;-73
2023/02/05 07:52:14;;;;;;;3.33;0.80;;;;;;;18.85;42.56;103712.78;4991810;28;20022;-74
2023/02/05 07:54:40;;;;;;;1.83;0.75;;;;;;;18.89;42.48;103722.28;4992067;28;20258;-74
2023/02/05 07:57:05;;;;;;;3.78;0.90;;;;;;;18.91;42.78;103727.53;4992380;28;20022;-74
2023/02/05 07:59:30;;;;;;;5.10;1.00;;;;;;;18.90;42.82;103723.16;4991571;28;20022;-79
2023/02/05 08:01:56;;;;;;;3.00;1.00;;;;;;;18.95;42.86;103737.06;5006913;28;20151;-77
2023/02/05 08:04:21;;;;;;;2.97;0.93;;;;;;;18.97;42.72;103751.91;4991246;28;20680;-74
2023/02/05 08:06:46;;;;;;;2.60;0.80;;;;;;;18.98;42.83;103750.16;4992516;28;20090;-82
2023/02/05 08:09:13;;;;;;;2.58;0.80;;;;;;;18.97;42.61;103743.16;4990852;28;20036;-70
2023/02/05 08:11:38;;;;;;;3.28;0.82;;;;;;;19.01;42.71;103752.69;4990620;28;20029;-71
2023/02/05 08:14:03;;;;;;;3.63;0.93;;;;;;;18.99;42.87;103760.69;4992672;28;20081;-71
2023/02/05 08:16:29;;;;;;;2.85;0.90;;;;;;;19.04;42.85;103747.25;4990615;28;20080;-71
2023/02/05 08:18:54;;;;;;;2.97;0.90;;;;;;;19.01;43.05;103753.53;4991459;28;20422;-73
2023/02/05 08:21:20;;;;;;;3.13;0.90;;;;;;;19.04;43.04;103765.75;4989889;28;20041;-71
2023/02/05 08:23:46;;;;;;;3.97;0.90;;;;;;;19.02;42.95;103763.16;4991984;28;20504;-73
2023/02/05 08:26:13;;;;;;;3.72;0.68;;;;;;;19.01;42.94;103760.63;4991760;28;20038;-74
2023/02/05 08:28:39;;;;;;;2.42;0.80;;;;;;;18.99;43.03;103751.88;4991029;28;20034;-74
2023/02/05 08:31:10;;;;;;;3.92;1.02;;;;;;;19.01;42.92;103760.63;4991543;28;20478;-73
2023/02/05 08:33:35;;;;;;;3.47;0.90;;;;;;;19.00;42.71;103756.25;4992655;28;20042;-76
2023/02/05 08:36:00;;;;;;;3.97;0.88;;;;;;;18.98;43.00;103758.09;4991639;28;20038;-77
2023/02/05 08:38:25;;;;;;;3.53;0.80;;;;;;;18.95;42.72;103768.78;4990816;28;20494;-74
2023/02/05 08:40:51;;;;;;;4.43;0.80;;;;;;;18.96;42.71;103767.84;4991404;28;20026;-75
2023/02/05 08:43:16;;;;;;;3.95;0.85;;;;;;;18.89;42.85;103769.00;4991273;28;20437;-74
2023/02/05 08:45:45;;;;;;;4.40;1.00;;;;;;;18.90;42.45;103783.94;4990253;28;20033;-76
2023/02/05 08:48:11;;;;;;;2.88;0.70;;;;;;;18.88;42.52;103783.13;4991619;28;20562;-76
2023/02/05 08:50:36;;;;;;;3.40;0.88;;;;;;;18.88;42.59;103793.69;4987417;28;20116;-75
2023/02/05 08:53:01;;;;;;;5.15;1.10;;;;;;;18.85;42.57;103784.13;4986649;28;20038;-76
2023/02/05 08:55:27;;;;;;;4.32;1.00;;;;;;;18.84;42.44;103785.03;4985870;28;20061;-74
2023/02/05 08:57:52;;;;;;;4.63;1.10;;;;;;;18.77;42.40;103779.09;4985119;28;20034;-74
2023/02/05 09:00:19;;;;;;;5.07;0.93;;;;;;;18.79;42.50;103793.09;4987171;28;20066;-75
2023/02/05 09:02:44;;;;;;;2.83;0.80;;;;;;;18.79;42.57;103785.19;4985528;28;20033;-75
2023/02/05 09:05:09;;;;;;;3.67;0.90;;;;;;;18.77;42.57;103792.31;4991251;28;20030;-74
2023/02/05 09:07:37;;;;;;;3.30;1.15;;;;;;;18.75;42.62;103780.06;4992778;28;20037;-73
2023/02/05 09:10:03;;;;;;;4.45;1.00;;;;;;;18.76;42.53;103784.44;4991972;28;20164;-74
2023/02/05 09:12:28;;;;;;;4.43;1.65;;;;;;;18.77;42.31;103791.44;4996201;28;20117;-74
2023/02/05 09:14:54;;;;;;;2.97;0.70;;;;;;;18.74;42.38;103783.63;4996478;28;20034;-74
2023/02/05 09:17:19;;;;;;;3.17;0.90;;;;;;;18.75;42.29;103788.00;4996442;28;20038;-73
2023/02/05 09:19:44;;;;;;;4.60;0.90;;;;;;;18.72;42.21;103782.81;5001652;28;20220;-74
2023/02/05 09:22:10;;;;;;;7.27;1.40;;;;;;;18.72;42.34;103788.97;4995291;28;20394;-76
2023/02/05 09:24:38;;;;;;;3.67;0.90;;;;;;;18.70;42.23;103784.66;4994440;28;20378;-75
2023/02/05 09:27:04;;;;;;;4.80;1.15;;;;;;;18.70;42.07;103779.38;4995490;28;20462;-74
2023/02/05 09:29:29;;;;;;;5.43;1.10;;;;;;;18.71;42.32;103791.66;4995223;28;20026;-76
2023/02/05 09:31:55;;;;;;;4.13;1.30;;;;;;;18.69;42.08;103794.34;4995739;28;20040;-76
2023/02/05 09:34:20;;;;;;;3.75;0.90;;;;;;;18.65;42.04;103785.69;4996198;28;20124;-75
2023/02/05 09:36:46;;;;;;;3.88;1.00;;;;;;;18.72;42.43;103798.66;4995994;28;20040;-75
2023/02/05 09:39:11;;;;;;;4.93;1.00;;;;;;;18.68;42.10;103784.72;4994593;28;20064;-74
2023/02/05 09:41:41;;;;;;;3.17;0.80;;;;;;;18.71;42.15;103789.91;4994366;28;20035;-74
2023/02/05 09:44:11;;;;;;;4.25;0.90;;;;;;;18.71;42.40;103787.25;4990723;28;20029;-74
2023/02/05 09:47:00;;;;;;;3.42;0.88;;;;;;;18.71;42.49;103791.66;4991881;28;20049;-75
2023/02/05 09:49:31;;;;;;;4.03;1.00;;;;;;;18.67;42.30;103786.50;4992541;28;20034;-74
2023/02/05 09:52:18;;;;;;;3.55;1.05;;;;;;;18.71;42.37;103796.94;4995064;28;20545;-74
2023/02/05 09:54:50;;;;;;;3.28;0.80;;;;;;;18.70;42.16;103800.53;4994521;28;20089;-75
2023/02/05 09:57:27;;;;;;;5.82;1.65;;;;;;;18.74;42.26;103803.00;4995166;28;20126;-73
2023/02/05 09:59:52;;;;;;;6.28;1.35;;;;;;;18.76;42.15;103810.84;4993923;28;20081;-74
2023/02/05 10:02:48;;;;;;;4.10;1.13;;;;;;;18.73;42.08;103793.34;4994631;28;20534;-73
2023/02/05 10:05:15;;;;;;;3.83;0.90;;;;;;;18.75;42.12;103780.91;4992779;28;20037;-72
2023/02/05 10:07:54;;;;;;;3.58;0.90;;;;;;;18.73;42.15;103784.56;4990319;28;20053;-74
2023/02/05 10:10:25;;;;;;;4.47;1.00;;;;;;;18.72;42.19;103777.53;4990490;28;20121;-76
2023/02/05 10:13:06;;;;;;;4.20;1.00;;;;;;;18.75;42.29;103783.56;4989516;28;20046;-74
2023/02/05 10:16:09;;;;;;;4.38;1.25;;;;;;;18.77;42.01;103779.09;4990471;28;20037;-74
2023/02/05 10:19:00;;;;;;;4.22;1.05;;;;;;;18.77;42.00;103789.66;4988345;28;20922;-74
2023/02/05 10:21:49;;;;;;;4.68;1.08;;;;;;;18.78;42.06;103785.25;4989505;28;20030;-75
2023/02/05 10:24:43;;;;;;;4.72;1.15;;;;;;;18.78;42.13;103786.09;4987820;28;20034;-72
2023/02/05 10:27:35;;;;;;;4.63;1.17;;;;;;;18.75;42.00;103775.63;4989444;28;20487;-74
2023/02/05 10:30:34;;;;;;;4.63;1.30;;;;;;;18.79;41.98;103782.53;4988835;28;20041;-74
2023/02/05 10:33:09;;;;;;;5.10;1.50;;;;;;;18.76;41.77;103789.72;4988421;28;20825;-74
2023/02/05 10:35:55;;;;;;;5.30;0.98;;;;;;;18.77;41.93;103794.94;4987485;28;20038;-73
2023/02/05 10:38:25;;;;;;;4.72;1.20;;;;;;;18.76;41.79;103798.50;4988705;28;20038;-74
2023/02/05 10:40:56;;;;;;;5.97;1.20;;;;;;;18.75;41.90;103788.00;4989035;28;20033;-73
2023/02/05 10:43:30;;;;;;;6.45;1.50;;;;;;;18.75;41.88;103778.28;4990721;28;20062;-74
2023/02/05 10:45:57;;;;;;;4.95;1.40;;;;;;;18.71;41.75;103766.13;4988371;28;20042;-73
2023/02/05 10:49:05;;;;;;;5.47;1.20;;;;;;;18.82;41.90;103784.22;4989376;28;20121;-75
2023/02/05 10:51:40;;;;;;;5.68;1.20;;;;;;;18.79;41.75;103784.31;4989704;28;20034;-73
2023/02/05 10:54:30;;;;;;;5.03;1.40;;;;;;;18.78;41.77;103786.09;4987747;28;20048;-74
2023/02/05 10:56:57;;;;;;;4.88;1.20;;;;;;;18.80;41.81;103786.91;5002859;28;20041;-74
2023/02/05 10:59:28;;;;;;;6.05;1.50;;;;;;;18.80;41.58;103770.19;4988351;28;20040;-74
2023/02/05 11:01:56;;;;;;;6.47;1.40;;;;;;;18.82;41.75;103784.22;4989534;28;20501;-73
2023/02/05 11:04:41;;;;;;;4.93;1.10;;;;;;;18.85;41.74;103786.78;5000877;28;20057;-73
2023/02/05 11:07:27;;;;;;;7.03;1.30;;;;;;;18.85;41.78;103795.56;4994719;28;20026;-74
2023/02/05 11:09:52;;;;;;;5.30;1.20;;;;;;;18.85;41.64;103807.91;4992612;28;20037;-74
2023/02/05 11:12:27;;;;;;;4.35;1.00;;;;;;;18.83;41.71;103804.41;4993888;28;20030;-73
2023/02/05 11:14:59;;;;;;;5.20;1.25;;;;;;;18.84;41.50;103809.66;4994859;28;20474;-74
2023/02/05 11:17:34;;;;;;;5.32;1.20;;;;;;;18.84;41.45;103798.25;4992454;28;20034;-73
2023/02/05 11:20:28;;;;;;;6.82;1.30;;;;;;;18.87;41.42;103806.06;4994461;28;20025;-74
2023/02/05 11:23:13;;;;;;;4.07;1.10;;;;;;;18.84;41.50;103804.38;4993144;28;20096;-75
2023/02/05 11:25:49;;;;;;;6.00;1.40;;;;;;;18.87;41.54;103814.00;4994597;28;20034;-74
2023/02/05 11:28:20;;;;;;;6.72;1.35;;;;;;;18.82;41.73;103795.63;4993706;28;20037;-76
2023/02/05 11:30:45;;;;;;;5.70;1.30;;;;;;;18.88;41.71;103813.06;4994459;28;20084;-76
2023/02/05 11:33:16;;;;;;;5.00;1.42;;;;;;;18.83;41.37;103801.78;4992970;28;20034;-74
2023/02/05 11:35:51;;;;;;;6.25;1.30;;;;;;;18.84;41.39;103795.59;4993415;28;20034;-75
2023/02/05 11:38:42;;;;;;;6.38;1.65;;;;;;;18.86;41.24;103801.69;4993455;28;20034;-74
2023/02/05 11:41:09;;;;;;;6.55;1.73;;;;;;;18.85;41.46;103802.63;4993769;28;20038;-76